createdAt,value
2022-09-04T00:00:31.339Z,9.80
2022-09-04T00:01:31.650Z,9.91
2022-09-04T00:02:31.743Z,9.81
2022-09-04T00:03:32.624Z,9.88
2022-09-04T00:04:31.236Z,9.88
2022-09-04T00:05:33.152Z,9.91
2022-09-04T00:06:29.278Z,9.80
2022-09-04T00:07:36.538Z,9.91
2022-09-04T00:08:30.725Z,9.83
2022-09-04T00:09:35.407Z,9.91
2022-09-04T00:10:33.131Z,9.86
2022-09-04T00:11:32.465Z,9.93
2022-09-04T00:12:30.358Z,9.78
2022-09-04T00:13:28.821Z,9.75
2022-09-04T00:14:28.995Z,9.92
2022-09-04T00:15:29.695Z,9.91
2022-09-04T00:16:31.928Z,9.86
2022-09-04T00:17:28.930Z,9.80
2022-09-04T00:18:29.059Z,9.74
2022-09-04T00:19:29.266Z,9.89
2022-09-04T00:20:29.572Z,9.80
2022-09-04T00:21:31.342Z,9.85
2022-09-04T00:22:30.935Z,9.85
2022-09-04T00:23:32.452Z,9.83
2022-09-04T00:24:29.441Z,9.91
2022-09-04T00:25:30.075Z,9.95
2022-09-04T00:26:31.936Z,9.98
2022-09-04T00:27:28.935Z,9.88
2022-09-04T00:28:30.949Z,9.99
2022-09-04T00:29:31.515Z,9.93
2022-09-04T00:30:29.089Z,9.95
2022-09-04T00:31:30.251Z,9.95
2022-09-04T00:32:30.147Z,9.83
2022-09-04T00:33:29.388Z,9.85
2022-09-04T00:34:30.251Z,9.95
2022-09-04T00:35:28.912Z,9.98
2022-09-04T00:36:29.893Z,9.98
2022-09-04T00:37:30.875Z,9.95
2022-09-04T00:38:28.778Z,9.99
2022-09-04T00:39:28.917Z,9.93
2022-09-04T00:40:31.341Z,10.01
2022-09-04T00:41:30.752Z,10.01
2022-09-04T00:42:30.547Z,10.01
2022-09-04T00:43:29.367Z,10.07
2022-09-04T00:44:31.363Z,10.04
2022-09-04T00:45:28.646Z,9.96
2022-09-04T00:46:30.921Z,9.99
2022-09-04T00:47:32.682Z,9.98
2022-09-04T00:48:31.981Z,10.01
2022-09-04T00:49:29.428Z,9.93
2022-09-04T00:50:29.263Z,9.91
2022-09-04T00:51:31.839Z,9.92
2022-09-04T00:52:36.433Z,9.96
2022-09-04T00:53:30.676Z,10.01
2022-09-04T00:54:30.000Z,9.93
2022-09-04T00:55:29.686Z,10.04
2022-09-04T00:56:28.831Z,10.01
2022-09-04T00:57:28.376Z,9.98
2022-09-04T00:58:29.315Z,9.92
2022-09-04T00:59:29.305Z,9.88
2022-09-04T01:00:31.139Z,9.95
2022-09-04T01:01:28.497Z,9.93
2022-09-04T01:02:28.435Z,9.91
2022-09-04T01:03:29.658Z,9.92
2022-09-04T01:04:30.733Z,9.96
2022-09-04T01:05:31.943Z,10.06
2022-09-04T01:06:28.394Z,10.04
2022-09-04T01:07:28.626Z,10.06
2022-09-04T01:08:28.464Z,10.10
2022-09-04T01:09:32.995Z,10.09
2022-09-04T01:10:29.742Z,10.09
2022-09-04T01:11:28.694Z,10.16
2022-09-04T01:12:28.218Z,10.06
2022-09-04T01:13:28.383Z,10.06
2022-09-04T01:14:28.287Z,9.99
2022-09-04T01:15:35.729Z,10.07
2022-09-04T01:16:33.373Z,9.96
2022-09-04T01:17:28.304Z,10.10
2022-09-04T01:18:29.316Z,10.11
2022-09-04T01:19:28.711Z,10.13
2022-09-04T01:20:29.034Z,10.17
2022-09-04T01:21:28.985Z,10.13
2022-09-04T01:22:31.806Z,10.13
2022-09-04T01:23:29.352Z,10.11
2022-09-04T01:24:29.091Z,10.02
2022-09-04T01:25:28.697Z,9.95
2022-09-04T01:26:29.217Z,9.89
2022-09-04T01:27:28.887Z,9.86
2022-09-04T01:28:28.316Z,9.89
2022-09-04T01:29:28.359Z,9.81
2022-09-04T01:30:29.802Z,9.91
2022-09-04T01:31:30.631Z,9.95
2022-09-04T01:32:31.514Z,9.98
2022-09-04T01:33:28.421Z,9.91
2022-09-04T01:34:28.532Z,9.89
2022-09-04T01:35:28.106Z,9.75
2022-09-04T01:36:29.326Z,9.81
2022-09-04T01:37:28.987Z,9.80
2022-09-04T01:38:29.347Z,9.93
2022-09-04T01:39:32.967Z,9.92
2022-09-04T01:40:35.432Z,9.85
2022-09-04T01:41:29.901Z,9.88
2022-09-04T01:42:29.809Z,9.86
2022-09-04T01:43:29.811Z,9.89
2022-09-04T01:44:28.874Z,9.88
2022-09-04T01:45:28.426Z,9.83
2022-09-04T01:46:30.173Z,9.95
2022-09-04T01:47:30.163Z,9.83
2022-09-04T01:48:29.752Z,9.81
2022-09-04T01:49:28.994Z,9.89
2022-09-04T01:50:28.849Z,9.85
2022-09-04T01:51:28.861Z,9.86
2022-09-04T01:52:28.839Z,9.81
2022-09-04T01:53:32.971Z,9.74
2022-09-04T01:54:28.508Z,9.70
2022-09-04T01:55:29.778Z,9.71
2022-09-04T01:56:28.254Z,9.73
2022-09-04T01:57:27.763Z,9.70
2022-09-04T01:58:28.344Z,9.81
2022-09-04T01:59:29.801Z,9.74
2022-09-04T02:00:30.064Z,9.75
2022-09-04T02:01:28.722Z,9.88
2022-09-04T02:02:28.286Z,9.86
2022-09-04T02:03:29.191Z,9.77
2022-09-04T02:04:27.827Z,9.92
2022-09-04T02:05:27.724Z,9.88
2022-09-04T02:06:32.740Z,9.85
2022-09-04T02:07:29.217Z,9.93
2022-09-04T02:08:28.912Z,9.91
2022-09-04T02:09:27.764Z,9.98
2022-09-04T02:10:30.708Z,9.95
2022-09-04T02:11:28.539Z,9.92
2022-09-04T02:12:31.432Z,9.93
2022-09-04T02:13:28.226Z,10.01
2022-09-04T02:14:30.141Z,10.04
2022-09-04T02:15:30.393Z,9.93
2022-09-04T02:16:28.291Z,10.06
2022-09-04T02:17:27.751Z,9.99
2022-09-04T02:18:32.119Z,10.09
2022-09-04T02:19:30.648Z,10.10
2022-09-04T02:20:28.223Z,10.04
2022-09-04T02:21:27.415Z,10.04
2022-09-04T02:22:27.413Z,10.06
2022-09-04T02:23:27.394Z,10.04
2022-09-04T02:24:27.378Z,9.91
2022-09-04T02:25:27.379Z,9.93
2022-09-04T02:26:27.355Z,10.01
2022-09-04T02:27:27.347Z,10.07
2022-09-04T02:28:27.337Z,10.02
2022-09-04T02:29:27.322Z,10.06
2022-09-04T02:30:27.324Z,10.01
2022-09-04T02:31:27.337Z,10.02
2022-09-04T02:32:27.290Z,9.96
2022-09-04T02:33:27.279Z,10.01
2022-09-04T02:34:27.271Z,10.02
2022-09-04T02:35:27.273Z,9.99
2022-09-04T02:36:27.262Z,10.01
2022-09-04T02:37:27.234Z,9.99
2022-09-04T02:38:27.225Z,9.98
2022-09-04T02:39:27.245Z,9.88
2022-09-04T02:40:27.548Z,9.99
2022-09-04T02:41:27.197Z,9.91
2022-09-04T02:42:27.236Z,9.86
2022-09-04T02:43:27.169Z,9.85
2022-09-04T02:44:27.162Z,9.88
2022-09-04T02:45:27.150Z,9.75
2022-09-04T02:46:27.287Z,9.98
2022-09-04T02:47:27.126Z,9.89
2022-09-04T02:48:27.120Z,9.91
2022-09-04T02:49:27.240Z,9.86
2022-09-04T02:50:27.108Z,9.88
2022-09-04T02:51:27.098Z,9.83
2022-09-04T02:52:27.094Z,9.89
2022-09-04T02:53:27.068Z,9.85
2022-09-04T02:54:27.152Z,9.81
2022-09-04T02:55:27.059Z,9.75
2022-09-04T02:56:27.033Z,9.88
2022-09-04T02:57:27.026Z,9.85
2022-09-04T02:58:27.022Z,9.77
2022-09-04T02:59:26.994Z,9.85
2022-09-04T03:00:27.060Z,9.88
2022-09-04T03:01:27.045Z,9.92
2022-09-04T03:02:27.035Z,9.89
2022-09-04T03:03:26.960Z,9.85
2022-09-04T03:04:26.945Z,9.83
2022-09-04T03:05:26.940Z,9.77
2022-09-04T03:06:26.930Z,9.74
2022-09-04T03:07:27.012Z,9.74
2022-09-04T03:08:26.903Z,9.67
2022-09-04T03:09:26.911Z,9.59
2022-09-04T03:10:26.953Z,9.62
2022-09-04T03:11:26.870Z,9.63
2022-09-04T03:12:26.858Z,9.59
2022-09-04T03:13:26.850Z,9.63
2022-09-04T03:14:26.896Z,9.68
2022-09-04T03:15:26.841Z,9.59
2022-09-04T03:16:26.890Z,9.63
2022-09-04T03:17:26.807Z,9.75
2022-09-04T03:18:26.874Z,9.62
2022-09-04T03:19:26.843Z,9.60
2022-09-04T03:20:26.904Z,9.59
2022-09-04T03:21:26.793Z,9.63
2022-09-04T03:22:26.759Z,9.70
2022-09-04T03:23:26.740Z,9.62
2022-09-04T03:24:26.734Z,9.53
2022-09-04T03:25:26.721Z,9.56
2022-09-04T03:26:26.727Z,9.63
2022-09-04T03:27:26.697Z,9.67
2022-09-04T03:28:26.911Z,9.59
2022-09-04T03:29:26.690Z,9.62
2022-09-04T03:30:26.663Z,9.60
2022-09-04T03:31:26.707Z,9.60
2022-09-04T03:32:26.646Z,9.53
2022-09-04T03:33:26.633Z,9.53
2022-09-04T03:34:26.619Z,9.52
2022-09-04T03:35:26.630Z,9.55
2022-09-04T03:36:26.600Z,9.50
2022-09-04T03:37:26.653Z,9.59
2022-09-04T03:38:26.575Z,9.40
2022-09-04T03:39:26.601Z,9.49
2022-09-04T03:40:26.572Z,9.42
2022-09-04T03:41:26.625Z,9.40
2022-09-04T03:42:26.532Z,9.49
2022-09-04T03:43:26.525Z,9.42
2022-09-04T03:44:26.565Z,9.45
2022-09-04T03:45:26.503Z,9.49
2022-09-04T03:46:26.530Z,9.42
2022-09-04T03:47:26.563Z,9.55
2022-09-04T03:48:26.648Z,9.67
2022-09-04T03:49:26.462Z,9.59
2022-09-04T03:50:26.457Z,9.45
2022-09-04T03:51:26.448Z,9.53
2022-09-04T03:52:26.427Z,9.48
2022-09-04T03:53:26.414Z,9.50
2022-09-04T03:54:26.402Z,9.41
2022-09-04T03:55:26.448Z,9.42
2022-09-04T03:56:26.383Z,9.38
2022-09-04T03:57:26.551Z,9.37
2022-09-04T03:58:26.433Z,9.38
2022-09-04T03:59:26.355Z,9.34
2022-09-04T04:00:26.345Z,9.35
2022-09-04T04:01:26.415Z,9.31
2022-09-04T04:02:26.418Z,9.34
2022-09-04T04:03:26.321Z,9.23
2022-09-04T04:04:26.359Z,9.35
2022-09-04T04:05:26.339Z,9.24
2022-09-04T04:06:26.281Z,9.17
2022-09-04T04:07:26.273Z,9.26
2022-09-04T04:08:26.277Z,9.20
2022-09-04T04:09:26.246Z,9.19
2022-09-04T04:10:26.309Z,9.22
2022-09-04T04:11:26.227Z,9.20
2022-09-04T04:12:26.212Z,9.24
2022-09-04T04:13:26.264Z,9.19
2022-09-04T04:14:26.196Z,9.17
2022-09-04T04:15:26.186Z,9.23
2022-09-04T04:16:26.230Z,9.17
2022-09-04T04:17:26.163Z,9.15
2022-09-04T04:18:26.212Z,9.26
2022-09-04T04:19:26.147Z,9.26
2022-09-04T04:20:26.140Z,9.22
2022-09-04T04:21:26.119Z,9.16
2022-09-04T04:22:26.111Z,9.15
2022-09-04T04:23:26.094Z,9.31
2022-09-04T04:24:26.086Z,9.24
2022-09-04T04:25:26.079Z,9.20
2022-09-04T04:26:26.127Z,9.30
2022-09-04T04:27:26.057Z,9.23
2022-09-04T04:28:26.218Z,9.30
2022-09-04T04:29:26.847Z,9.24
2022-09-04T04:30:26.019Z,9.32
2022-09-04T04:31:26.116Z,9.24
2022-09-04T04:32:26.109Z,9.27
2022-09-04T04:33:25.984Z,9.34
2022-09-04T04:34:26.002Z,9.24
2022-09-04T04:35:26.020Z,9.26
2022-09-04T04:36:25.995Z,9.27
2022-09-04T04:37:25.944Z,9.26
2022-09-04T04:38:26.193Z,9.31
2022-09-04T04:39:30.160Z,9.26
2022-09-04T04:40:26.153Z,9.30
2022-09-04T04:41:25.897Z,9.31
2022-09-04T04:42:25.907Z,9.23
2022-09-04T04:43:25.943Z,9.20
2022-09-04T04:44:25.876Z,9.22
2022-09-04T04:45:25.855Z,9.22
2022-09-04T04:46:25.925Z,9.22
2022-09-04T04:47:25.834Z,9.16
2022-09-04T04:48:26.034Z,9.20
2022-09-04T04:49:25.815Z,9.08
2022-09-04T04:50:25.861Z,9.31
2022-09-04T04:51:25.796Z,9.30
2022-09-04T04:52:25.794Z,9.22
2022-09-04T04:53:25.783Z,9.24
2022-09-04T04:54:25.822Z,9.37
2022-09-04T04:55:25.749Z,9.23
2022-09-04T04:56:25.740Z,9.27
2022-09-04T04:57:25.730Z,9.32
2022-09-04T04:58:25.913Z,9.37
2022-09-04T04:59:25.717Z,9.24
2022-09-04T05:00:27.791Z,9.37
2022-09-04T05:01:25.754Z,9.31
2022-09-04T05:02:25.821Z,9.35
2022-09-04T05:03:25.661Z,9.37
2022-09-04T05:04:25.654Z,9.32
2022-09-04T05:05:25.650Z,9.48
2022-09-04T05:06:25.636Z,9.44
2022-09-04T05:07:25.629Z,9.42
2022-09-04T05:08:25.813Z,9.45
2022-09-04T05:09:25.605Z,9.55
2022-09-04T05:10:25.659Z,9.50
2022-09-04T05:11:25.578Z,9.53
2022-09-04T05:12:25.571Z,9.62
2022-09-04T05:13:25.560Z,9.56
2022-09-04T05:14:25.548Z,9.65
2022-09-04T05:15:25.600Z,9.58
2022-09-04T05:16:25.558Z,9.60
2022-09-04T05:17:25.512Z,9.60
2022-09-04T05:18:25.614Z,9.70
2022-09-04T05:19:25.488Z,9.75
2022-09-04T05:20:25.479Z,9.80
2022-09-04T05:21:25.493Z,9.65
2022-09-04T05:22:25.461Z,9.73
2022-09-04T05:23:28.859Z,9.68
2022-09-04T05:24:25.438Z,9.75
2022-09-04T05:25:25.431Z,9.70
2022-09-04T05:26:25.415Z,9.68
2022-09-04T05:27:25.417Z,9.71
2022-09-04T05:28:25.507Z,9.65
2022-09-04T05:29:28.225Z,9.74
2022-09-04T05:30:26.375Z,9.67
2022-09-04T05:31:25.476Z,9.67
2022-09-04T05:32:25.350Z,9.68
2022-09-04T05:33:25.377Z,9.80
2022-09-04T05:34:25.408Z,9.74
2022-09-04T05:35:25.373Z,9.78
2022-09-04T05:36:26.321Z,9.77
2022-09-04T05:37:25.297Z,9.91
2022-09-04T05:38:25.405Z,9.77
2022-09-04T05:39:25.457Z,9.93
2022-09-04T05:40:25.263Z,9.92
2022-09-04T05:41:25.259Z,9.83
2022-09-04T05:42:25.243Z,9.86
2022-09-04T05:43:25.236Z,9.88
2022-09-04T05:44:25.224Z,9.89
2022-09-04T05:45:25.220Z,9.99
2022-09-04T05:46:25.213Z,10.55
2022-09-04T05:47:29.839Z,10.98
2022-09-04T05:48:26.441Z,11.35
2022-09-04T05:49:25.171Z,11.85
2022-09-04T05:50:25.176Z,12.21
2022-09-04T05:51:25.164Z,12.56
2022-09-04T05:52:25.132Z,12.87
2022-09-04T05:53:25.123Z,13.22
2022-09-04T05:54:25.154Z,13.51
2022-09-04T05:55:25.116Z,13.50
2022-09-04T05:56:25.218Z,13.36
2022-09-04T05:57:25.095Z,13.19
2022-09-04T05:58:25.152Z,13.35
2022-09-04T05:59:25.055Z,13.55
2022-09-04T06:00:25.048Z,13.83
2022-09-04T06:01:25.193Z,13.81
2022-09-04T06:02:25.132Z,14.11
2022-09-04T06:03:25.116Z,14.17
2022-09-04T06:04:25.001Z,14.06
2022-09-04T06:05:24.990Z,14.31
2022-09-04T06:06:25.001Z,14.48
2022-09-04T06:07:24.988Z,14.31
2022-09-04T06:08:28.418Z,14.36
2022-09-04T06:09:24.947Z,14.31
2022-09-04T06:10:25.009Z,14.23
2022-09-04T06:11:25.013Z,14.19
2022-09-04T06:12:24.985Z,14.05
2022-09-04T06:13:24.973Z,14.08
2022-09-04T06:14:24.910Z,14.34
2022-09-04T06:15:24.892Z,14.64
2022-09-04T06:16:24.970Z,14.86
2022-09-04T06:17:24.855Z,15.03
2022-09-04T06:18:25.004Z,14.90
2022-09-04T06:19:24.840Z,14.72
2022-09-04T06:20:24.823Z,14.97
2022-09-04T06:21:25.004Z,14.97
2022-09-04T06:22:24.802Z,14.85
2022-09-04T06:23:24.791Z,14.93
2022-09-04T06:24:24.799Z,14.83
2022-09-04T06:25:24.787Z,14.54
2022-09-04T06:26:24.766Z,14.64
2022-09-04T06:27:24.743Z,14.64
2022-09-04T06:28:24.860Z,14.85
2022-09-04T06:29:24.728Z,15.04
2022-09-04T06:30:24.731Z,15.33
2022-09-04T06:31:24.762Z,15.19
2022-09-04T06:32:24.696Z,14.94
2022-09-04T06:33:24.680Z,14.78
2022-09-04T06:34:24.668Z,14.63
2022-09-04T06:35:24.682Z,14.61
2022-09-04T06:36:24.662Z,14.90
2022-09-04T06:37:24.639Z,14.94
2022-09-04T06:38:24.792Z,15.07
2022-09-04T06:39:24.740Z,15.00
2022-09-04T06:40:24.650Z,15.01
2022-09-04T06:41:24.607Z,15.12
2022-09-04T06:42:24.595Z,15.31
2022-09-04T06:43:24.570Z,15.05
2022-09-04T06:44:25.611Z,15.15
2022-09-04T06:45:24.550Z,15.07
2022-09-04T06:46:24.576Z,14.95
2022-09-04T06:47:24.539Z,14.82
2022-09-04T06:48:24.628Z,14.35
2022-09-04T06:49:24.505Z,14.17
2022-09-04T06:50:24.538Z,14.27
2022-09-04T06:51:24.530Z,14.39
2022-09-04T06:52:24.483Z,14.67
2022-09-04T06:53:24.463Z,14.95
2022-09-04T06:54:24.455Z,14.79
2022-09-04T06:55:24.439Z,14.64
2022-09-04T06:56:24.430Z,14.57
2022-09-04T06:57:24.435Z,14.67
2022-09-04T06:58:24.532Z,15.15
2022-09-04T06:59:24.470Z,15.19
2022-09-04T07:00:25.395Z,15.58
2022-09-04T07:01:24.491Z,15.86
2022-09-04T07:02:24.541Z,16.10
2022-09-04T07:03:24.360Z,16.40
2022-09-04T07:04:24.352Z,16.22
2022-09-04T07:05:24.391Z,15.98
2022-09-04T07:06:24.320Z,15.33
2022-09-04T07:07:24.309Z,15.13
2022-09-04T07:08:24.366Z,15.40
2022-09-04T07:09:24.316Z,15.41
2022-09-04T07:10:24.277Z,15.37
2022-09-04T07:11:24.268Z,15.25
2022-09-04T07:12:24.256Z,15.55
2022-09-04T07:13:24.245Z,15.59
2022-09-04T07:14:24.247Z,15.56
2022-09-04T07:15:24.390Z,15.38
2022-09-04T07:16:24.212Z,15.55
2022-09-04T07:17:24.229Z,15.60
2022-09-04T07:18:24.300Z,15.40
2022-09-04T07:19:24.201Z,15.23
2022-09-04T07:20:24.171Z,15.37
2022-09-04T07:21:24.156Z,15.20
2022-09-04T07:22:24.155Z,15.31
2022-09-04T07:23:24.149Z,15.33
2022-09-04T07:24:24.126Z,14.95
2022-09-04T07:25:24.196Z,14.29
2022-09-04T07:26:24.112Z,14.11
2022-09-04T07:27:24.093Z,14.04
2022-09-04T07:28:24.331Z,14.44
2022-09-04T07:29:26.127Z,14.95
2022-09-04T07:30:24.059Z,15.44
2022-09-04T07:31:24.082Z,15.52
2022-09-04T07:32:24.050Z,15.78
2022-09-04T07:33:24.028Z,16.10
2022-09-04T07:34:24.103Z,16.30
2022-09-04T07:35:24.011Z,16.44
2022-09-04T07:36:27.731Z,16.10
2022-09-04T07:37:25.037Z,15.40
2022-09-04T07:38:24.288Z,15.73
2022-09-04T07:39:24.067Z,16.14
2022-09-04T07:40:23.950Z,16.07
2022-09-04T07:41:23.940Z,15.81
2022-09-04T07:42:23.960Z,16.06
2022-09-04T07:43:23.923Z,15.60
2022-09-04T07:44:23.906Z,15.04
2022-09-04T07:45:23.908Z,14.78
2022-09-04T07:46:23.956Z,15.18
2022-09-04T07:47:23.993Z,14.79
2022-09-04T07:48:23.859Z,14.82
2022-09-04T07:49:23.865Z,15.00
2022-09-04T07:50:23.839Z,15.16
2022-09-04T07:51:23.842Z,15.55
2022-09-04T07:52:23.819Z,15.92
2022-09-04T07:53:23.892Z,15.86
2022-09-04T07:54:23.799Z,16.16
2022-09-04T07:55:23.789Z,16.30
2022-09-04T07:56:23.792Z,16.54
2022-09-04T07:57:23.767Z,16.22
2022-09-04T07:58:23.794Z,16.57
2022-09-04T07:59:23.755Z,16.77
2022-09-04T08:00:23.817Z,16.87
2022-09-04T08:01:23.852Z,16.85
2022-09-04T08:02:23.711Z,16.90
2022-09-04T08:03:23.700Z,16.77
2022-09-04T08:04:23.746Z,16.73
2022-09-04T08:05:23.677Z,16.75
2022-09-04T08:06:23.731Z,16.85
2022-09-04T08:07:24.683Z,17.30
2022-09-04T08:08:23.644Z,17.51
2022-09-04T08:09:23.631Z,17.38
2022-09-04T08:10:23.623Z,17.54
2022-09-04T08:11:23.608Z,17.51
2022-09-04T08:12:23.601Z,17.10
2022-09-04T08:13:23.614Z,17.10
2022-09-04T08:14:23.578Z,17.22
2022-09-04T08:15:23.603Z,17.47
2022-09-04T08:16:23.612Z,17.25
2022-09-04T08:17:23.547Z,17.02
2022-09-04T08:18:23.580Z,16.92
2022-09-04T08:19:23.600Z,16.73
2022-09-04T08:20:23.511Z,16.81
2022-09-04T08:21:23.502Z,16.90
2022-09-04T08:22:28.146Z,17.36
2022-09-04T08:23:23.474Z,17.06
2022-09-04T08:24:23.467Z,17.07
2022-09-04T08:25:23.469Z,16.85
2022-09-04T08:26:23.469Z,16.91
2022-09-04T08:27:23.472Z,17.51
2022-09-04T08:28:23.425Z,17.45
2022-09-04T08:29:23.415Z,17.17
2022-09-04T08:30:23.397Z,16.81
2022-09-04T08:31:23.441Z,17.12
2022-09-04T08:32:23.395Z,17.00
2022-09-04T08:33:23.370Z,17.42
2022-09-04T08:34:23.354Z,17.49
2022-09-04T08:35:23.377Z,17.51
2022-09-04T08:36:23.332Z,17.60
2022-09-04T08:37:23.325Z,17.60
2022-09-04T08:38:23.403Z,17.25
2022-09-04T08:39:23.318Z,16.96
2022-09-04T08:40:23.292Z,16.91
2022-09-04T08:41:23.283Z,17.71
2022-09-04T08:42:23.286Z,17.73
2022-09-04T08:43:23.254Z,17.42
2022-09-04T08:44:23.253Z,17.35
2022-09-04T08:45:23.242Z,16.87
2022-09-04T08:46:27.094Z,16.77
2022-09-04T08:47:24.221Z,16.62
2022-09-04T08:48:23.271Z,16.82
2022-09-04T08:49:23.189Z,16.73
2022-09-04T08:50:23.181Z,16.82
2022-09-04T08:51:23.176Z,17.18
2022-09-04T08:52:23.160Z,17.05
2022-09-04T08:53:23.146Z,16.81
2022-09-04T08:54:23.138Z,16.84
2022-09-04T08:55:23.143Z,16.91
2022-09-04T08:56:23.126Z,16.88
2022-09-04T08:57:23.156Z,16.69
2022-09-04T08:58:23.181Z,16.69
2022-09-04T08:59:23.081Z,16.59
2022-09-04T09:00:23.134Z,16.50
2022-09-04T09:01:23.134Z,16.57
2022-09-04T09:02:23.085Z,16.69
2022-09-04T09:03:23.086Z,16.72
2022-09-04T09:04:23.027Z,16.91
2022-09-04T09:05:23.069Z,17.57
2022-09-04T09:06:23.002Z,17.54
2022-09-04T09:07:22.996Z,17.46
2022-09-04T09:08:23.044Z,16.99
2022-09-04T09:09:23.048Z,16.90
2022-09-04T09:10:22.959Z,16.82
2022-09-04T09:11:22.949Z,16.98
2022-09-04T09:12:22.935Z,17.14
2022-09-04T09:13:22.940Z,17.09
2022-09-04T09:14:22.916Z,17.06
2022-09-04T09:15:22.950Z,17.24
2022-09-04T09:16:22.953Z,17.22
2022-09-04T09:17:29.875Z,17.09
2022-09-04T09:18:24.242Z,17.38
2022-09-04T09:19:22.922Z,17.63
2022-09-04T09:20:22.856Z,18.01
2022-09-04T09:21:22.893Z,18.34
2022-09-04T09:22:22.830Z,18.23
2022-09-04T09:23:22.820Z,18.25
2022-09-04T09:24:22.832Z,19.06
2022-09-04T09:25:22.852Z,19.38
2022-09-04T09:26:22.787Z,19.17
2022-09-04T09:27:22.771Z,18.86
2022-09-04T09:28:22.760Z,18.74
2022-09-04T09:29:22.755Z,18.53
2022-09-04T09:30:22.753Z,18.62
2022-09-04T09:31:22.892Z,18.76
2022-09-04T09:32:22.931Z,18.99
2022-09-04T09:33:22.725Z,18.87
2022-09-04T09:34:22.693Z,18.74
2022-09-04T09:35:22.694Z,18.47
2022-09-04T09:36:22.786Z,18.21
2022-09-04T09:37:22.670Z,18.28
2022-09-04T09:38:22.651Z,18.34
2022-09-04T09:39:22.720Z,18.13
2022-09-04T09:40:22.631Z,18.41
2022-09-04T09:41:22.616Z,18.31
2022-09-04T09:42:22.628Z,18.36
2022-09-04T09:43:22.655Z,18.36
2022-09-04T09:44:22.631Z,18.36
2022-09-04T09:45:22.579Z,18.31
2022-09-04T09:46:22.677Z,18.16
2022-09-04T09:47:22.552Z,17.74
2022-09-04T09:48:22.560Z,17.62
2022-09-04T09:49:22.531Z,17.74
2022-09-04T09:50:22.523Z,17.99
2022-09-04T09:51:22.511Z,18.17
2022-09-04T09:52:22.526Z,17.98
2022-09-04T09:53:22.585Z,17.99
2022-09-04T09:54:22.501Z,18.02
2022-09-04T09:55:22.464Z,17.99
2022-09-04T09:56:22.458Z,18.09
2022-09-04T09:57:27.326Z,17.84
2022-09-04T09:58:23.494Z,17.70
2022-09-04T09:59:22.443Z,17.76
2022-09-04T10:00:22.410Z,17.49
2022-09-04T10:01:22.450Z,17.33
2022-09-04T10:02:22.474Z,17.27
2022-09-04T10:03:22.380Z,17.15
2022-09-04T10:04:22.425Z,17.17
2022-09-04T10:05:22.368Z,17.25
2022-09-04T10:06:22.354Z,17.32
2022-09-04T10:07:22.329Z,17.46
2022-09-04T10:08:31.794Z,17.35
2022-09-04T10:09:23.315Z,17.18
2022-09-04T10:10:22.308Z,17.21
2022-09-04T10:11:22.370Z,17.12
2022-09-04T10:12:22.280Z,17.14
2022-09-04T10:13:22.341Z,17.18
2022-09-04T10:14:25.127Z,17.22
2022-09-04T10:15:22.248Z,17.10
2022-09-04T10:16:22.331Z,17.25
2022-09-04T10:17:22.298Z,17.15
2022-09-04T10:18:22.215Z,17.24
2022-09-04T10:19:22.203Z,17.25
2022-09-04T10:20:22.196Z,17.09
2022-09-04T10:21:22.184Z,17.03
2022-09-04T10:22:22.170Z,16.99
2022-09-04T10:23:22.275Z,16.99
2022-09-04T10:24:22.150Z,16.91
2022-09-04T10:25:22.137Z,16.88
2022-09-04T10:26:22.137Z,17.03
2022-09-04T10:27:22.137Z,17.07
2022-09-04T10:28:22.107Z,16.98
2022-09-04T10:29:22.154Z,16.88
2022-09-04T10:30:22.155Z,16.81
2022-09-04T10:31:22.087Z,16.75
2022-09-04T10:32:22.059Z,16.66
2022-09-04T10:33:22.214Z,16.66
2022-09-04T10:34:22.196Z,16.75
2022-09-04T10:35:22.036Z,16.69
2022-09-04T10:36:22.015Z,16.77
2022-09-04T10:37:22.007Z,16.70
2022-09-04T10:38:22.000Z,16.78
2022-09-04T10:39:22.052Z,16.66
2022-09-04T10:40:22.008Z,16.85
2022-09-04T10:41:21.966Z,16.99
2022-09-04T10:42:21.953Z,17.00
2022-09-04T10:43:22.059Z,17.02
2022-09-04T10:44:21.934Z,17.22
2022-09-04T10:45:21.919Z,17.25
2022-09-04T10:46:23.311Z,17.35
2022-09-04T10:47:21.899Z,17.42
2022-09-04T10:48:25.323Z,17.47
2022-09-04T10:49:22.877Z,17.49
2022-09-04T10:50:21.881Z,17.60
2022-09-04T10:51:21.853Z,18.05
2022-09-04T10:52:21.898Z,18.14
2022-09-04T10:53:21.831Z,18.20
2022-09-04T10:54:21.830Z,18.21
2022-09-04T10:55:21.809Z,18.14
2022-09-04T10:56:21.816Z,18.29
2022-09-04T10:57:21.790Z,18.31
2022-09-04T10:58:21.781Z,18.54
2022-09-04T10:59:21.817Z,18.90
2022-09-04T11:00:21.755Z,19.50
2022-09-04T11:01:21.777Z,19.78
2022-09-04T11:02:21.803Z,19.89
2022-09-04T11:03:21.726Z,20.00
2022-09-04T11:04:21.713Z,20.10
2022-09-04T11:05:21.701Z,20.41
2022-09-04T11:06:21.692Z,20.57
2022-09-04T11:07:25.745Z,21.06
2022-09-04T11:08:22.674Z,21.11
2022-09-04T11:09:21.666Z,20.48
2022-09-04T11:10:21.641Z,20.34
2022-09-04T11:11:21.643Z,20.23
2022-09-04T11:12:21.683Z,20.30
2022-09-04T11:13:21.611Z,20.33
2022-09-04T11:14:21.612Z,20.38
2022-09-04T11:15:21.601Z,20.38
2022-09-04T11:16:21.592Z,20.33
2022-09-04T11:17:21.569Z,19.97
2022-09-04T11:18:21.625Z,19.68
2022-09-04T11:19:21.560Z,19.95
2022-09-04T11:20:21.547Z,19.90
2022-09-04T11:21:21.528Z,19.72
2022-09-04T11:22:21.514Z,19.60
2022-09-04T11:23:21.503Z,19.62
2022-09-04T11:24:21.487Z,19.68
2022-09-04T11:25:21.482Z,19.72
2022-09-04T11:26:21.489Z,19.79
2022-09-04T11:27:21.457Z,19.71
2022-09-04T11:28:21.454Z,19.87
2022-09-04T11:29:21.434Z,19.64
2022-09-04T11:30:21.465Z,19.82
2022-09-04T11:31:21.439Z,19.92
2022-09-04T11:32:21.567Z,19.78
2022-09-04T11:33:21.451Z,19.83
2022-09-04T11:34:21.379Z,19.85
2022-09-04T11:35:21.370Z,19.98
2022-09-04T11:36:21.358Z,19.97
2022-09-04T11:37:21.344Z,19.61
2022-09-04T11:38:21.359Z,19.72
2022-09-04T11:39:21.397Z,19.68
2022-09-04T11:40:21.512Z,19.45
2022-09-04T11:41:21.301Z,19.17
2022-09-04T11:42:21.292Z,18.99
2022-09-04T11:43:21.281Z,19.16
2022-09-04T11:44:21.285Z,18.94
2022-09-04T11:45:21.481Z,18.97
2022-09-04T11:46:21.245Z,19.10
2022-09-04T11:47:21.236Z,19.17
2022-09-04T11:48:21.280Z,19.12
2022-09-04T11:49:21.220Z,19.02
2022-09-04T11:50:21.214Z,18.79
2022-09-04T11:51:21.192Z,18.94
2022-09-04T11:52:21.182Z,19.01
2022-09-04T11:53:21.252Z,19.20
2022-09-04T11:54:21.166Z,19.43
2022-09-04T11:55:21.151Z,20.01
2022-09-04T11:56:21.171Z,19.98
2022-09-04T11:57:21.144Z,19.87
2022-09-04T11:58:21.216Z,20.30
2022-09-04T11:59:21.118Z,20.37
2022-09-04T12:00:21.095Z,20.26
2022-09-04T12:01:21.090Z,20.35
2022-09-04T12:02:21.293Z,20.34
2022-09-04T12:03:21.220Z,20.12
2022-09-04T12:04:21.169Z,20.12
2022-09-04T12:05:21.087Z,20.37
2022-09-04T12:06:21.084Z,20.37
2022-09-04T12:07:21.026Z,20.37
2022-09-04T12:08:21.005Z,20.37
2022-09-04T12:09:21.044Z,20.58
2022-09-04T12:10:20.989Z,20.68
2022-09-04T12:11:20.970Z,21.00
2022-09-04T12:12:20.957Z,21.28
2022-09-04T12:13:21.057Z,21.48
2022-09-04T12:14:20.939Z,21.56
2022-09-04T12:15:21.028Z,21.51
2022-09-04T12:16:20.984Z,21.75
2022-09-04T12:17:20.905Z,21.86
2022-09-04T12:18:20.898Z,21.53
2022-09-04T12:19:20.904Z,21.53
2022-09-04T12:20:20.879Z,21.89
2022-09-04T12:21:20.860Z,22.04
2022-09-04T12:22:20.962Z,21.63
2022-09-04T12:23:20.885Z,21.56
2022-09-04T12:24:20.855Z,21.59
2022-09-04T12:25:20.852Z,21.91
2022-09-04T12:26:20.808Z,22.08
2022-09-04T12:27:20.793Z,21.93
2022-09-04T12:28:20.832Z,21.99
2022-09-04T12:29:20.780Z,21.89
2022-09-04T12:30:20.776Z,22.14
2022-09-04T12:31:20.838Z,21.83
2022-09-04T12:32:20.739Z,22.01
2022-09-04T12:33:20.799Z,21.91
2022-09-04T12:34:20.856Z,21.98
2022-09-04T12:35:20.709Z,22.20
2022-09-04T12:36:20.720Z,22.38
2022-09-04T12:37:20.704Z,22.52
2022-09-04T12:38:20.750Z,22.57
2022-09-04T12:39:20.727Z,22.75
2022-09-04T12:40:20.691Z,22.30
2022-09-04T12:41:20.637Z,21.91
2022-09-04T12:42:20.628Z,21.79
2022-09-04T12:43:20.677Z,21.81
2022-09-04T12:44:20.628Z,21.82
2022-09-04T12:45:20.651Z,22.27
2022-09-04T12:46:20.606Z,22.64
2022-09-04T12:47:20.583Z,22.94
2022-09-04T12:48:20.557Z,22.67
2022-09-04T12:49:20.549Z,22.63
2022-09-04T12:50:20.550Z,22.61
2022-09-04T12:51:20.539Z,22.48
2022-09-04T12:52:20.612Z,22.61
2022-09-04T12:53:20.622Z,22.63
2022-09-04T12:54:20.585Z,22.81
2022-09-04T12:55:20.489Z,22.81
2022-09-04T12:56:20.537Z,22.54
2022-09-04T12:57:20.465Z,22.69
2022-09-04T12:58:20.453Z,22.81
2022-09-04T12:59:20.602Z,23.11
2022-09-04T13:00:20.541Z,23.11
2022-09-04T13:01:20.505Z,22.75
2022-09-04T13:02:20.595Z,22.49